createdAt,value
2019-02-25T00:02:12.329Z,5.10
2019-02-25T00:05:13.023Z,5.00
2019-02-25T00:10:58.393Z,5.00
2019-02-25T00:16:43.427Z,4.90
2019-02-25T00:22:49.135Z,4.80
2019-02-25T00:25:49.848Z,4.80
2019-02-25T00:31:34.842Z,4.80
2019-02-25T00:34:36.191Z,4.80
2019-02-25T00:37:36.966Z,4.70
2019-02-25T00:40:38.060Z,4.70
2019-02-25T00:46:49.059Z,4.70
2019-02-25T00:52:34.667Z,4.50
2019-02-25T00:58:19.807Z,4.50
2019-02-25T01:01:21.153Z,4.50
2019-02-25T01:07:07.748Z,4.50
2019-02-25T01:12:54.022Z,4.40
2019-02-25T01:18:39.216Z,4.30
2019-02-25T01:21:40.517Z,4.30
2019-02-25T01:27:25.286Z,4.20
2019-02-25T01:33:10.631Z,4.10
2019-02-25T01:36:11.839Z,4.10
2019-02-25T01:39:18.613Z,4.10
2019-02-25T01:42:19.819Z,4.00
2019-02-25T01:45:21.054Z,4.10
2019-02-25T01:48:21.674Z,4.00
2019-02-25T01:54:07.084Z,4.00
2019-02-25T01:57:07.507Z,3.90
2019-02-25T02:02:52.102Z,3.80
2019-02-25T02:08:37.408Z,3.80
2019-02-25T02:11:38.630Z,3.80
2019-02-25T02:14:39.330Z,3.70
2019-02-25T02:20:50.038Z,3.70
2019-02-25T02:23:51.183Z,3.70
2019-02-25T02:29:37.922Z,3.70
2019-02-25T02:35:22.671Z,3.60
2019-02-25T02:38:23.270Z,3.60
2019-02-25T02:44:08.135Z,3.50
2019-02-25T02:47:09.523Z,3.50
2019-02-25T02:50:10.392Z,3.50
2019-02-25T02:53:11.696Z,3.50
2019-02-25T02:56:12.457Z,3.40
2019-02-25T02:59:13.295Z,3.40
2019-02-25T03:02:13.753Z,3.40
2019-02-25T03:05:15.155Z,3.30
2019-02-25T03:08:35.427Z,3.30
2019-02-25T03:11:36.091Z,3.30
2019-02-25T03:14:40.490Z,3.20
2019-02-25T03:24:10.431Z,3.10
2019-02-25T03:27:30.084Z,3.20
2019-02-25T03:30:32.717Z,3.10
2019-02-25T03:49:41.573Z,2.90
2019-02-25T03:55:55.158Z,3.00
2019-02-25T04:05:04.686Z,2.90
2019-02-25T04:08:08.922Z,2.90
2019-02-25T04:11:09.663Z,2.90
2019-02-25T04:16:54.173Z,2.90
2019-02-25T04:22:40.772Z,2.80
2019-02-25T04:25:41.303Z,2.80
2019-02-25T04:31:27.702Z,2.80
2019-02-25T04:34:29.000Z,2.80
2019-02-25T04:37:29.556Z,2.80
2019-02-25T04:43:18.407Z,2.80
2019-02-25T04:46:19.043Z,2.80
2019-02-25T04:52:09.538Z,2.70
2019-02-25T04:57:53.094Z,2.70
2019-02-25T05:03:38.633Z,2.60
2019-02-25T05:06:39.132Z,2.60
2019-02-25T05:12:27.213Z,2.60
2019-02-25T05:18:34.019Z,2.60
2019-02-25T05:24:18.847Z,2.50
2019-02-25T05:27:19.288Z,2.60
2019-02-25T05:33:09.979Z,2.70
2019-02-25T05:42:27.048Z,2.80
2019-02-25T05:48:11.502Z,2.70
2019-02-25T05:53:56.350Z,2.70
2019-02-25T05:59:41.765Z,2.60
2019-02-25T06:02:43.811Z,2.60
2019-02-25T06:08:29.459Z,2.60
2019-02-25T06:14:14.452Z,2.50
2019-02-25T06:19:59.379Z,2.60
2019-02-25T06:29:51.490Z,2.50
2019-02-25T06:36:15.472Z,2.40
2019-02-25T06:42:21.358Z,2.40
2019-02-25T06:45:40.770Z,2.40
2019-02-25T06:49:06.214Z,2.40
2019-02-25T06:54:52.079Z,2.50
2019-02-25T06:57:53.338Z,2.50
2019-02-25T07:00:54.052Z,2.50
2019-02-25T07:04:14.529Z,2.50
2019-02-25T07:10:00.283Z,2.50
2019-02-25T07:15:45.206Z,2.60
2019-02-25T07:21:35.039Z,2.60
2019-02-25T07:27:23.879Z,2.80
2019-02-25T07:33:46.564Z,2.90
2019-02-25T07:36:47.047Z,3.00
2019-02-25T07:40:09.559Z,3.10
2019-02-25T07:46:20.241Z,3.30
2019-02-25T07:52:09.591Z,3.60
2019-02-25T07:57:55.110Z,3.80
2019-02-25T08:03:39.894Z,4.10
2019-02-25T08:06:40.636Z,4.20
2019-02-25T08:12:20.670Z,4.40
2019-02-25T08:18:26.427Z,4.70
2019-02-25T08:27:21.525Z,5.10
2019-02-25T08:30:22.736Z,5.20
2019-02-25T08:33:23.012Z,5.40
2019-02-25T08:39:07.758Z,5.70
2019-02-25T08:44:53.332Z,6.00
2019-02-25T08:50:33.699Z,6.10
2019-02-25T08:53:35.027Z,6.20
2019-02-25T08:59:20.007Z,6.50
2019-02-25T09:02:18.630Z,6.60
2019-02-25T09:05:18.998Z,6.80
2019-02-25T09:14:05.708Z,7.20
2019-02-25T09:17:07.102Z,7.40
2019-02-25T09:20:08.394Z,7.60
2019-02-25T09:25:53.509Z,7.80
2019-02-25T09:31:38.332Z,8.30
2019-02-25T09:37:23.235Z,8.40
2019-02-25T09:40:23.758Z,8.60
2019-02-25T09:46:08.713Z,8.80
2019-02-25T09:49:09.854Z,9.00
2019-02-25T09:52:10.868Z,9.00
2019-02-25T09:57:56.195Z,9.30
2019-02-25T10:00:57.463Z,9.50
2019-02-25T10:06:42.689Z,9.80
2019-02-25T10:12:23.147Z,10.10
2019-02-25T10:18:46.910Z,10.30
2019-02-25T10:21:53.395Z,10.40
2019-02-25T10:27:38.006Z,10.70
2019-02-25T10:30:39.311Z,10.90
2019-02-25T10:33:39.988Z,11.10
2019-02-25T10:36:40.740Z,11.20
2019-02-25T10:42:27.544Z,11.60
2019-02-25T10:48:15.185Z,11.70
2019-02-25T10:51:16.153Z,11.80
2019-02-25T10:57:00.747Z,12.20
2019-02-25T11:02:44.192Z,12.50
2019-02-25T11:08:27.906Z,12.70
2019-02-25T11:14:12.922Z,12.80
2019-02-25T11:17:13.902Z,12.90
2019-02-25T11:22:59.387Z,13.20
2019-02-25T11:26:02.212Z,13.20
2019-02-25T11:29:02.784Z,13.20
2019-02-25T11:32:03.975Z,13.30
2019-02-25T11:37:51.454Z,13.60
2019-02-25T11:43:31.325Z,13.80
2019-02-25T11:49:16.110Z,14.10
2019-02-25T11:52:16.554Z,14.20
2019-02-25T12:01:47.478Z,14.60
2019-02-25T12:04:48.557Z,14.60
2019-02-25T12:07:49.771Z,14.60
2019-02-25T12:13:35.346Z,14.70
2019-02-25T12:19:20.840Z,14.70
2019-02-25T12:28:16.735Z,15.10
2019-02-25T12:34:01.735Z,15.20
2019-02-25T12:39:46.982Z,15.10
2019-02-25T12:42:47.621Z,15.30
2019-02-25T12:48:32.323Z,15.50
2019-02-25T12:51:33.647Z,15.50
2019-02-25T12:54:34.119Z,15.70
2019-02-25T13:00:18.652Z,15.90
2019-02-25T13:03:19.472Z,15.90
2019-02-25T13:08:59.939Z,16.00
2019-02-25T13:14:45.626Z,16.10
2019-02-25T13:20:31.366Z,16.20
2019-02-25T13:23:32.099Z,16.20
2019-02-25T13:29:18.404Z,16.30
2019-02-25T13:32:19.495Z,16.30
2019-02-25T13:35:21.124Z,16.30
2019-02-25T13:41:05.945Z,16.50
2019-02-25T13:44:06.914Z,16.50
2019-02-25T13:49:51.671Z,16.50
2019-02-25T13:55:38.106Z,16.70
2019-02-25T13:58:39.603Z,16.80
2019-02-25T14:04:45.298Z,16.70
2019-02-25T14:10:30.520Z,16.70
2019-02-25T14:13:31.823Z,16.80
2019-02-25T14:16:32.627Z,16.60
2019-02-25T14:19:33.994Z,16.80
2019-02-25T14:25:19.801Z,16.60
2019-02-25T14:31:04.788Z,16.60
2019-02-25T14:34:06.271Z,16.70
2019-02-25T14:37:07.567Z,16.50
2019-02-25T14:40:08.930Z,16.50
2019-02-25T14:45:56.172Z,16.70
2019-02-25T14:48:57.302Z,16.60
2019-02-25T14:51:57.927Z,16.60
2019-02-25T14:55:00.986Z,16.40
2019-02-25T15:00:47.081Z,16.30
2019-02-25T15:06:33.081Z,16.10
2019-02-25T15:12:20.695Z,16.20
2019-02-25T15:15:21.786Z,16.20
2019-02-25T15:21:08.898Z,16.10
2019-02-25T15:26:57.222Z,16.20
2019-02-25T15:29:57.588Z,16.20
2019-02-25T15:32:59.897Z,16.10
2019-02-25T15:36:01.366Z,16.10
2019-02-25T15:41:48.690Z,16.00
2019-02-25T15:47:34.015Z,16.10
2019-02-25T15:53:48.618Z,16.40
2019-02-25T15:56:48.695Z,16.50
2019-02-25T16:03:28.499Z,16.60
2019-02-25T16:06:30.993Z,16.40
2019-02-25T16:12:15.851Z,16.30
2019-02-25T16:18:02.477Z,15.70
2019-02-25T16:21:03.244Z,15.50
2019-02-25T16:24:08.165Z,15.30
2019-02-25T16:27:08.471Z,14.60
2019-02-25T16:32:53.842Z,14.80
2019-02-25T16:38:36.015Z,14.40
2019-02-25T16:41:38.723Z,14.30
2019-02-25T16:47:32.888Z,14.10
2019-02-25T16:53:10.920Z,13.80
2019-02-25T16:58:57.114Z,13.50
2019-02-25T17:02:00.036Z,13.50
2019-02-25T17:07:46.517Z,13.30
2019-02-25T17:13:33.049Z,13.10
2019-02-25T17:19:14.433Z,12.80
2019-02-25T17:22:14.966Z,12.70
2019-02-25T17:25:16.750Z,12.60
2019-02-25T17:28:19.851Z,12.40
2019-02-25T17:34:05.030Z,12.20
2019-02-25T17:37:07.904Z,12.10
2019-02-25T17:40:11.335Z,12.00
2019-02-25T17:43:11.266Z,11.80
2019-02-25T17:49:01.695Z,11.60
2019-02-25T17:52:03.858Z,11.50
2019-02-25T17:55:06.287Z,11.40
2019-02-25T17:58:12.538Z,11.30
2019-02-25T18:03:59.797Z,11.10
2019-02-25T18:09:47.944Z,10.90
2019-02-25T18:12:50.079Z,10.80
2019-02-25T18:15:56.218Z,10.60
2019-02-25T18:18:56.870Z,10.60
2019-02-25T18:27:49.939Z,10.40
2019-02-25T18:36:58.254Z,10.20
2019-02-25T18:39:58.818Z,10.00
2019-02-25T18:46:25.543Z,9.90
2019-02-25T18:49:32.671Z,9.80
2019-02-25T18:55:18.721Z,9.70
2019-02-25T18:58:25.139Z,9.60
2019-02-25T19:04:13.178Z,9.40
2019-02-25T19:07:14.230Z,9.40
2019-02-25T19:10:16.245Z,9.30
2019-02-25T19:13:20.172Z,9.30
2019-02-25T19:19:06.422Z,9.10
2019-02-25T19:24:52.032Z,9.00
2019-02-25T19:28:16.628Z,8.90
2019-02-25T19:31:35.309Z,8.90
2019-02-25T19:34:34.710Z,8.80
2019-02-25T19:40:24.488Z,8.70
2019-02-25T19:46:12.546Z,8.60
2019-02-25T19:49:33.768Z,8.50
2019-02-25T19:55:21.000Z,8.40
2019-02-25T20:01:09.006Z,8.30
2019-02-25T20:04:12.291Z,8.20
2019-02-25T20:09:57.823Z,8.10
2019-02-25T20:13:07.746Z,8.10
2019-02-25T20:16:08.221Z,8.00
2019-02-25T20:19:09.797Z,8.00
2019-02-25T20:24:57.647Z,7.80
2019-02-25T20:30:44.727Z,7.90
2019-02-25T20:36:30.632Z,7.70
2019-02-25T20:39:33.747Z,7.70
2019-02-25T20:45:21.002Z,7.50
2019-02-25T20:52:01.513Z,7.40
2019-02-25T21:01:52.418Z,7.30
2019-02-25T21:04:59.102Z,7.30
2019-02-25T21:08:00.467Z,7.20
2019-02-25T21:11:02.474Z,7.20
2019-02-25T21:16:48.604Z,7.10
2019-02-25T21:22:34.007Z,7.00
2019-02-25T21:25:36.828Z,7.00
2019-02-25T21:31:23.921Z,6.90
2019-02-25T21:37:09.742Z,6.80
2019-02-25T21:40:11.093Z,6.80
2019-02-25T21:43:14.379Z,6.70
2019-02-25T21:46:17.887Z,6.70
2019-02-25T21:52:02.485Z,6.60
2019-02-25T21:57:47.714Z,6.50
2019-02-25T22:00:48.227Z,6.40
2019-02-25T22:06:33.296Z,6.50
2019-02-25T22:12:16.950Z,6.40
2019-02-25T22:18:03.939Z,6.30
2019-02-25T22:21:09.185Z,6.20
2019-02-25T22:26:54.262Z,6.10
2019-02-25T22:29:57.965Z,6.20
2019-02-25T22:33:00.704Z,6.10
2019-02-25T22:38:46.598Z,6.20
2019-02-25T22:41:48.770Z,6.20
2019-02-25T22:47:34.572Z,6.20
2019-02-25T22:50:37.655Z,6.10
2019-02-25T22:53:38.490Z,6.10
2019-02-25T22:56:39.034Z,6.10
2019-02-25T23:02:27.297Z,6.30
2019-02-25T23:05:32.955Z,6.20
2019-02-25T23:08:34.224Z,6.10
2019-02-25T23:14:19.099Z,5.90
2019-02-25T23:17:19.488Z,5.90
2019-02-25T23:23:26.480Z,5.80
2019-02-25T23:29:11.999Z,5.60
2019-02-25T23:32:15.367Z,5.60
2019-02-25T23:38:00.969Z,5.40
2019-02-25T23:43:46.981Z,5.40
2019-02-25T23:49:36.411Z,5.30
2019-02-25T23:52:37.546Z,5.30
2019-02-25T23:58:24.012Z,5.20
